Latest Weather Observations for kunanyi / Mount Wellington

IDT60801

Issued at 12:51 am EST Thursday 18 July 2019 (issued every 10 minutes, with the page automatically refreshed every 10 minutes)

About weather observations | Map of weather stations | Latest weather observations for TAS | Other Formats
Station Details ID: 094087 Name: KUNANYI (MOUNT WELLINGTON PINNACLE) Lat: -42.90 Lon: 147.24 Height: 1260.47 m
Data from the previous 72 hours. | See also: Recent months at kunanyi / Mount Wellington
Date/Time
EST
Temp
°C
App
Temp
°C
Dew
Point
°C
Rel
Hum
%
Delta-T
°C
Wind Press
QNH
hPa
Press
MSL
hPa
Rain since
9am
mm
Dir  Spd
km/h
Gust
km/h
Spd
kts
Gust
kts
18/12:30am -2.4 -14.6 -2.7 98 0.0 SW 52 67 28 36 - - 1.8
18/12:00am -2.4 -14.6 -2.7 98 0.0 SW 52 61 28 33 - - 1.8
 
Date/Time
EST
Temp
°C
App
Temp
°C
Dew
Point
°C
Rel
Hum
%
Delta-T
°C
Wind Press
QNH
hPa
Press
MSL
hPa
Rain since
9am
mm
Dir  Spd
km/h
Gust
km/h
Spd
kts
Gust
kts
17/11:30pm -2.4 -15.6 -2.7 98 0.0 SW 57 72 31 39 - - 1.8
17/11:00pm -2.4 -17.5 -2.7 98 0.0 SW 67 78 36 42 - - 1.8
17/10:30pm -2.4 -17.9 -2.7 98 0.0 WSW 69 76 37 41 - - 1.8
17/10:00pm -2.2 -17.6 -2.5 98 0.0 WSW 69 82 37 44 - - 1.6
17/09:30pm -2.1 -16.0 -2.2 99 -0.1 SW 61 78 33 42 - - 1.4
17/09:00pm -1.9 -14.4 -2.0 99 -0.1 WSW 54 67 29 36 - - 1.4
17/08:51pm -1.8 -15.3 -1.9 99 -0.1 WSW 59 78 32 42 - - 1.4
17/08:30pm -1.8 -14.7 -1.9 99 -0.1 WSW 56 67 30 36 - - 1.4
17/08:04pm -1.8 -16.0 -1.9 99 -0.1 WSW 63 82 34 44 - - 1.4
17/08:00pm -1.8 -16.4 -1.9 99 -0.1 WSW 65 80 35 43 - - 1.2
17/07:30pm -1.9 -14.8 -2.0 99 -0.1 WSW 56 67 30 36 - - 1.2
17/07:16pm -1.9 -15.7 -2.0 99 -0.1 WSW 61 82 33 44 - - 1.2
17/07:00pm -1.9 -15.7 -2.0 99 -0.1 WSW 61 78 33 42 - - 1.2
17/06:48pm -1.8 -16.0 -1.9 99 -0.1 WSW 63 80 34 43 - - 1.2
17/06:38pm -1.7 -12.7 -1.8 99 0.0 WSW 46 69 25 37 - - 1.2
17/06:30pm -1.6 -12.6 -1.7 99 0.0 WSW 46 61 25 33 - - 1.2
17/06:19pm -1.7 -13.8 -1.8 99 0.0 WSW 52 72 28 39 - - 1.2
17/06:00pm -1.7 -16.7 -1.8 99 0.0 WSW 67 89 36 48 - - 1.2
17/05:30pm -1.7 -17.6 -1.8 99 0.0 WSW 72 91 39 49 - - 1.2
17/05:00pm -1.2 -15.3 -1.2 100 0.0 WSW 63 91 34 49 - - 1.0
17/04:45pm -0.9 -14.6 -0.9 100 0.0 WSW 61 80 33 43 - - 1.0
17/04:30pm -1.0 -16.2 -1.0 100 0.0 WSW 69 87 37 47 - - 1.0
17/04:00pm -0.6 -15.8 -0.6 100 0.0 WSW 69 87 37 47 - - 1.0
17/03:30pm -0.5 -14.5 -0.5 100 0.0 WSW 63 83 34 45 - - 0.8
17/03:19pm -0.2 -13.4 -0.2 100 0.0 WSW 59 80 32 43 - - 0.6
17/03:17pm -0.2 -13.8 -0.2 100 0.0 WSW 61 80 33 43 - - 0.6
17/03:00pm -0.3 -16.0 -0.3 100 0.0 WSW 72 100 39 54 - - 0.4
17/02:30pm 0.0 -15.3 0.0 100 0.0 WSW 70 89 38 48 - - 0.4
17/02:00pm 0.0 -15.1 0.0 100 0.0 WSW 69 95 37 51 - - 0.2
17/01:42pm 0.5 -15.5 0.5 100 0.0 WSW 74 95 40 51 - - 0.2
17/01:30pm 0.1 -15.9 0.0 99 0.0 WSW 74 93 40 50 - - 0.2
17/01:00pm 1.8 -14.4 1.7 99 0.0 W 76 100 41 54 - - 0.0
17/12:30pm 1.6 -16.0 1.2 97 0.2 W 83 106 45 57 - - 0.0
17/12:00pm 2.4 -15.5 1.7 95 0.3 W 85 113 46 61 - - 0.0
17/11:30am 1.5 -16.0 1.4 99 0.0 W 83 117 45 63 - - 0.0
17/11:00am 1.5 -15.1 1.4 99 0.0 W 78 107 42 58 - - 0.0
17/10:32am 1.6 -16.0 1.3 98 0.1 W 83 120 45 65 - - 0.0
17/10:30am 1.5 -15.8 1.4 99 0.0 W 82 102 44 55 - - 0.0
17/10:00am 1.4 -15.6 1.0 97 0.2 W 80 104 43 56 - - 0.0
17/09:30am 1.1 -15.2 1.1 100 0.0 W 76 106 41 57 - - 0.0
17/09:00am 1.1 -14.4 1.1 100 0.0 W 72 98 39 53 - - 0.2
17/08:30am 0.9 -13.7 0.9 100 0.0 WNW 67 89 36 48 - - 0.2
17/08:00am 0.9 -13.7 0.9 100 0.0 W 67 89 36 48 - - 0.2
17/07:30am 0.8 -14.2 0.8 100 0.0 W 69 102 37 55 - - 0.2
17/07:25am 0.8 -13.0 0.8 100 0.0 W 63 95 34 51 - - 0.2
17/07:00am 1.1 -11.0 1.1 100 0.0 W 54 72 29 39 - - 0.0
17/06:37am 1.1 -11.0 1.1 100 0.0 W 54 78 29 42 - - 0.0
17/06:30am 1.2 -10.9 1.2 100 0.0 WNW 54 70 29 38 - - 0.0
17/06:00am 1.2 -11.4 1.2 100 0.0 W 57 76 31 41 - - 0.0
17/05:30am 1.1 -11.9 1.1 100 0.0 W 59 78 32 42 - - 0.0
17/05:00am 1.0 -11.5 1.0 100 0.0 W 56 80 30 43 - - 0.0
17/04:32am 1.1 -9.8 1.1 100 0.0 W 48 69 26 37 - - 0.0
17/04:30am 1.1 -9.5 1.1 100 0.0 W 46 63 25 34 - - 0.0
17/04:10am 1.2 -9.0 1.2 100 0.0 W 44 65 24 35 - - 0.0
17/04:00am 1.2 -8.8 1.2 100 0.0 W 43 59 23 32 - - 0.0
17/03:39am 1.2 -7.6 1.2 100 0.0 W 37 59 20 32 - - 0.0
17/03:30am 1.2 -6.9 1.2 100 0.0 W 33 44 18 24 - - 0.0
17/03:22am 1.1 -9.1 1.1 100 0.0 W 44 65 24 35 - - 0.0
17/03:06am 1.1 -11.4 1.1 100 0.0 W 56 76 30 41 - - 0.0
17/03:00am 1.2 -10.9 1.2 100 0.0 W 54 69 29 37 - - 0.0
17/02:30am 1.3 -11.7 1.3 100 0.0 W 59 82 32 44 - - 0.0
17/02:00am 1.9 -9.7 1.9 100 0.0 W 52 80 28 43 - - 0.0
17/01:42am 2.0 -9.2 2.0 100 0.0 WSW 50 70 27 38 - - 0.0
17/01:30am 2.1 -10.2 2.1 100 0.0 WSW 56 69 30 37 - - 0.0
17/01:00am 2.4 -8.7 2.4 100 0.0 WSW 50 74 27 40 - - 0.0
17/12:30am 2.5 -8.6 2.5 100 0.0 WSW 50 74 27 40 - - 0.0
17/12:00am 2.5 -7.8 2.5 100 0.0 WSW 46 65 25 35 - - 0.0
 
Date/Time
EST
Temp
°C
App
Temp
°C
Dew
Point
°C
Rel
Hum
%
Delta-T
°C
Wind Press
QNH
hPa
Press
MSL
hPa
Rain since
9am
mm
Dir  Spd
km/h
Gust
km/h
Spd
kts
Gust
kts
16/11:30pm 2.4 -7.4 2.4 100 0.0 WSW 43 56 23 30 - - 0.0
16/11:00pm 2.4 -7.6 2.4 100 0.0 WSW 44 57 24 31 - - 0.0
16/10:30pm 2.4 -7.6 2.4 100 0.0 WSW 44 63 24 34 - - 0.0
16/10:00pm 2.4 -7.4 2.4 100 0.0 WSW 43 59 23 32 - - 0.0
16/09:43pm 2.5 -7.4 2.5 100 0.0 WSW 44 63 24 34 - - 0.0
16/09:30pm 2.4 -7.6 2.4 100 0.0 WSW 44 57 24 31 - - 0.0
16/09:25pm 2.3 -8.1 2.3 100 0.0 WSW 46 67 25 36 - - 0.0
16/09:00pm 2.3 -7.7 2.3 100 0.0 WSW 44 57 24 31 - - 0.0
16/08:30pm 2.2 -7.6 2.2 100 0.0 WSW 43 61 23 33 - - 0.0
16/08:14pm 2.0 -8.0 2.0 100 0.0 WSW 44 65 24 35 - - 0.0
16/08:00pm 1.9 -8.1 1.9 100 0.0 WSW 44 59 24 32 - - 0.0
16/07:34pm 1.9 -7.6 1.9 100 0.0 WSW 41 61 22 33 - - 0.0
16/07:30pm 1.8 -6.9 1.8 100 0.0 WSW 37 50 20 27 - - 0.0
16/07:09pm 1.8 -8.3 1.8 100 0.0 WSW 44 67 24 36 - - 0.0
16/07:00pm 1.7 -8.4 1.7 100 0.0 WSW 44 61 24 33 - - 0.0
16/06:36pm 1.7 -6.3 1.7 100 0.0 WSW 33 56 18 30 - - 0.0
16/06:30pm 1.7 -6.7 1.7 100 0.0 WSW 35 46 19 25 - - 0.0
16/06:00pm 1.5 -8.4 1.5 100 0.0 WSW 43 61 23 33 - - 0.0
16/05:44pm 1.5 -8.4 1.5 100 0.0 WSW 43 61 23 33 - - 0.0
16/05:30pm 1.5 -8.6 1.5 100 0.0 WSW 44 59 24 32 - - 0.0
16/05:00pm 1.6 -9.6 1.6 100 0.0 SW 50 65 27 35 - - 0.0
16/04:32pm 1.7 -9.5 1.7 100 0.0 WSW 50 70 27 38 - - 0.0
16/04:30pm 1.7 -9.5 1.7 100 0.0 WSW 50 63 27 34 - - 0.0
16/04:03pm 2.0 -8.5 1.7 98 0.1 WSW 46 65 25 35 - - 0.0
16/04:00pm 1.9 -8.6 1.6 98 0.1 WSW 46 63 25 34 - - 0.0
16/03:49pm 2.0 -10.4 1.6 97 0.2 WSW 56 76 30 41 - - 0.0
16/03:30pm 2.1 -11.3 1.2 94 0.4 WSW 61 76 33 41 - - 0.0
16/03:00pm 2.3 -10.3 1.4 94 0.4 WSW 57 76 31 41 - - 0.0
16/02:39pm 2.5 -9.1 1.9 96 0.3 WSW 52 70 28 38 - - 0.0
16/02:30pm 2.3 -10.2 1.7 96 0.3 WSW 57 69 31 37 - - 0.0
16/02:00pm 2.8 -8.7 2.4 97 0.2 WSW 52 72 28 39 - - 0.0
16/01:30pm 2.5 -7.4 2.5 100 0.0 WSW 44 65 24 35 - - 0.0
16/01:19pm 2.5 -7.8 2.5 100 0.0 W 46 65 25 35 - - 0.0
16/01:11pm 2.5 -9.7 2.5 100 0.0 WSW 56 72 30 39 - - 0.0
16/01:00pm 2.4 -12.3 2.4 100 0.0 WSW 69 91 37 49 - - 0.0
16/12:30pm 2.1 -11.1 2.1 100 0.0 WSW 61 87 33 47 - - 0.0
16/12:00pm 1.9 -13.1 1.9 100 0.0 WSW 70 104 38 56 - - 0.0
16/11:30am 2.1 -11.5 2.1 100 0.0 WSW 63 85 34 46 - - 0.0
16/11:00am 2.0 -14.1 2.0 100 0.0 WSW 76 100 41 54 - - 0.0
16/10:30am 2.0 -13.4 2.0 100 0.0 WSW 72 95 39 51 - - 0.0
16/10:00am 2.0 -12.8 2.0 100 0.0 WSW 69 87 37 47 - - 0.0
16/09:30am 2.0 -13.7 2.0 100 0.0 WSW 74 96 40 52 - - 0.0
16/09:21am 1.9 -13.8 1.9 100 0.0 WSW 74 96 40 52 - - 0.0
16/09:00am 1.8 -13.6 1.8 100 0.0 WSW 72 87 39 47 - - 0.2
16/08:30am 1.7 -13.7 1.7 100 0.0 WSW 72 85 39 46 - - 0.2
16/08:00am 1.7 -12.7 1.7 100 0.0 WSW 67 87 36 47 - - 0.2
16/07:53am 1.7 -12.0 1.7 100 0.0 WSW 63 87 34 47 - - 0.2
16/07:30am 1.7 -11.2 1.7 100 0.0 WSW 59 76 32 41 - - 0.2
16/07:01am 1.8 -12.3 1.8 100 0.0 WSW 65 83 35 45 - - 0.0
16/07:00am 1.8 -12.3 1.8 100 0.0 WSW 65 82 35 44 - - 0.0
16/06:30am 1.8 -12.6 1.8 100 0.0 WSW 67 85 36 46 - - 0.0
16/06:00am 1.8 -11.9 1.8 100 0.0 SW 63 89 34 48 - - 0.0
16/05:30am 1.9 -10.0 1.9 100 0.0 WSW 54 74 29 40 - - 0.0
16/05:01am 2.0 -12.8 2.0 100 0.0 WSW 69 89 37 48 - - 0.0
16/05:00am 2.0 -12.4 2.0 100 0.0 WSW 67 83 36 45 - - 0.0
16/04:30am 2.0 -12.8 2.0 100 0.0 WSW 69 89 37 48 - - 0.0
16/04:00am 2.0 -13.7 2.0 100 0.0 WSW 74 95 40 51 - - 0.0
16/03:43am 2.0 -14.5 2.0 100 0.0 WSW 78 98 42 53 - - 0.0
16/03:30am 2.0 -14.9 2.0 100 0.0 WSW 80 98 43 53 - - 0.0
16/03:03am 1.9 -15.4 1.9 100 0.0 WSW 82 107 44 58 - - 0.0
16/03:00am 2.0 -15.3 2.0 100 0.0 WSW 82 98 44 53 - - 0.0
16/02:30am 1.9 -16.7 1.9 100 0.0 WSW 89 107 48 58 - - 0.0
16/02:00am 2.0 -15.8 2.0 100 0.0 WSW 85 111 46 60 - - 0.0
16/01:30am 2.0 -17.0 2.0 100 0.0 WSW 91 113 49 61 - - 0.0
16/01:00am 1.9 -18.0 1.9 100 0.0 WSW 96 117 52 63 - - 0.0
16/12:30am 1.9 -16.7 1.9 100 0.0 WSW 89 109 48 59 - - 0.0
16/12:00am 1.8 -17.6 1.8 100 0.0 WSW 93 113 50 61 - - 0.0
 
Date/Time
EST
Temp
°C
App
Temp
°C
Dew
Point
°C
Rel
Hum
%
Delta-T
°C
Wind Press
QNH
hPa
Press
MSL
hPa
Rain since
9am
mm
Dir  Spd
km/h
Gust
km/h
Spd
kts
Gust
kts
15/11:33pm 1.9 -16.3 1.9 100 0.0 WSW 87 106 47 57 - - 0.0
15/11:30pm 2.0 -16.6 2.0 100 0.0 WSW 89 106 48 57 - - 0.0
15/11:00pm 2.0 -17.0 2.0 100 0.0 WSW 91 111 49 60 - - 0.0
15/10:30pm 2.1 -17.6 2.1 100 0.0 WSW 95 119 51 64 - - 0.0
15/10:00pm 2.0 -15.8 2.0 100 0.0 WSW 85 109 46 59 - - 0.0
15/09:48pm 1.9 -16.3 1.9 100 0.0 WSW 87 106 47 57 - - 0.0
15/09:30pm 2.0 -16.2 2.0 100 0.0 WSW 87 104 47 56 - - 0.0
15/09:03pm 2.1 -15.1 2.1 100 0.0 WSW 82 104 44 56 - - 0.0
15/09:00pm 2.1 -15.1 2.1 100 0.0 WSW 82 100 44 54 - - 0.0
15/08:30pm 2.1 -16.8 2.1 100 0.0 WSW 91 113 49 61 - - 0.0
15/08:00pm 2.1 -17.8 2.1 100 0.0 WSW 96 120 52 65 - - 0.0
15/07:30pm 2.1 -17.8 2.1 100 0.0 WSW 96 119 52 64 - - 0.0
15/07:00pm 2.1 -15.7 2.1 100 0.0 WSW 85 117 46 63 - - 0.0
15/06:30pm 2.1 -15.3 2.1 100 0.0 WSW 83 106 45 57 - - 0.0
15/06:03pm 2.1 -16.1 2.1 100 0.0 WSW 87 106 47 57 - - 0.0
15/06:00pm 2.1 -16.8 2.1 100 0.0 WSW 91 106 49 57 - - 0.0
15/05:30pm 2.1 -16.8 2.1 100 0.0 WSW 91 117 49 63 - - 0.0
15/05:00pm 1.7 -16.2 1.7 100 0.0 WSW 85 111 46 60 - - 0.0
15/04:30pm 1.6 -16.3 1.6 100 0.0 WSW 85 109 46 59 - - 0.0
15/04:00pm 1.4 -16.9 1.4 100 0.0 WSW 87 109 47 59 - - 0.0
15/03:30pm 1.6 -18.4 1.6 100 0.0 WSW 96 117 52 63 - - 0.0
15/03:00pm 1.8 -18.0 1.8 100 0.0 WSW 95 117 51 63 - - 0.0
15/02:30pm 1.8 -16.8 1.8 100 0.0 WSW 89 109 48 59 - - 0.0
15/02:00pm 0.5 -17.6 0.5 100 0.0 WSW 85 120 46 65 - - 0.0
15/01:41pm 1.4 -17.7 1.4 100 0.0 WSW 91 132 49 71 - - 0.0
15/01:30pm 1.1 -17.6 1.1 100 0.0 WSW 89 113 48 61 - - 0.0
15/01:00pm 0.3 -17.8 0.3 100 0.0 WSW 85 107 46 58 - - 0.0
15/12:30pm 0.0 -16.0 0.0 100 0.0 WSW 74 96 40 52 - - 0.0
15/12:00pm 0.0 -13.6 0.0 100 0.0 WSW 61 85 33 46 - - 0.0
15/11:54am 0.0 -13.2 0.0 100 0.0 WSW 59 78 32 42 - - 0.0
15/11:41am 0.0 -5.8 0.0 100 0.0 WSW 20 61 11 33 - - 0.0
15/11:30am -0.1 -3.8 -0.1 100 0.0 WSW 9 13 5 7 - - 0.0
15/11:00am -0.1 -2.1 -0.2 99 0.0 CALM 0 0 0 0 - - 0.0
15/10:30am -0.6 -2.7 -0.7 99 0.0 CALM 0 0 0 0 - - 0.0
15/10:00am -1.0 -3.1 -1.1 99 0.0 CALM 0 0 0 0 - - 0.0
15/09:30am -1.3 -3.5 -1.4 99 0.0 CALM 0 0 0 0 - - 0.0
15/09:00am -1.3 -3.5 -1.4 99 0.0 CALM 0 0 0 0 - - 0.8
15/08:30am -1.2 -3.4 -1.3 99 0.0 CALM 0 0 0 0 - - 0.6
15/08:00am -1.3 -3.5 -1.4 99 0.0 CALM 0 0 0 0 - - 0.6
15/07:30am -1.4 -3.6 -1.5 99 0.0 CALM 0 0 0 0 - - 0.6
15/07:00am -1.3 -3.5 -1.4 99 0.0 CALM 0 0 0 0 - - 0.6
15/06:30am -1.1 -3.3 -1.2 99 0.0 CALM 0 0 0 0 - - 0.6
15/06:00am -1.0 -3.1 -1.1 99 0.0 CALM 0 0 0 0 - - 0.6
15/05:30am -0.9 -3.0 -1.0 99 0.0 CALM 0 0 0 0 - - 0.6
15/05:00am -1.0 -3.1 -1.1 99 0.0 CALM 0 0 0 0 - - 0.6
15/04:30am -1.0 -3.1 -1.1 99 0.0 CALM 0 0 0 0 - - 0.6
15/04:00am -1.2 -3.4 -1.3 99 0.0 CALM 0 0 0 0 - - 0.6
15/03:30am -1.4 -3.6 -1.7 98 0.0 CALM 0 0 0 0 - - 0.6
15/03:00am -1.5 -3.7 -1.8 98 0.0 CALM 0 2 0 1 - - 0.6
15/02:30am -1.6 -5.6 -1.9 98 0.0 WNW 9 11 5 6 - - 0.6
15/02:00am -1.8 -6.5 -2.1 98 0.0 WNW 13 15 7 8 - - 0.4
15/01:30am -2.1 -7.7 -2.5 97 0.0 WNW 17 20 9 11 - - 0.4
15/01:00am -2.5 -8.1 -2.9 97 0.0 WNW 17 19 9 10 - - 0.4

Other formats

Comma delimited format used in spreadsheet applications
http://www.bom.gov.au/fwo/IDT60801/IDT60801.95979.axf

JavaScript Object Notation format (JSON) in row-major order
http://www.bom.gov.au/fwo/IDT60801/IDT60801.95979.json

Data quality

Most of these data are generated automatically and are frequently updated. Quality checks on data are not normally performed. It is possible for incorrect values to appear. Refer to information at About Latest Weather Observations and please check the disclaimer before using these data.